createdAt,value
2018-10-19T00:00:45.669Z,22.34
2018-10-19T00:03:14.292Z,22.33
2018-10-19T00:05:43.131Z,22.33
2018-10-19T00:08:11.536Z,22.32
2018-10-19T00:10:40.043Z,22.30
2018-10-19T00:13:08.409Z,22.30
2018-10-19T00:15:36.932Z,22.30
2018-10-19T00:18:05.744Z,22.31
2018-10-19T00:20:34.103Z,22.30
2018-10-19T00:23:02.697Z,22.28
2018-10-19T00:25:30.993Z,22.27
2018-10-19T00:27:59.347Z,22.26
2018-10-19T00:30:27.735Z,22.27
2018-10-19T00:32:56.134Z,22.26
2018-10-19T00:35:24.476Z,22.26
2018-10-19T00:37:52.931Z,22.26
2018-10-19T00:40:21.446Z,22.25
2018-10-19T00:42:49.858Z,22.24
2018-10-19T00:45:18.185Z,22.24
2018-10-19T00:47:47.219Z,22.23
2018-10-19T00:50:15.578Z,22.22
2018-10-19T00:52:44.011Z,22.21
2018-10-19T00:55:12.466Z,22.21
2018-10-19T00:57:40.842Z,22.21
2018-10-19T01:00:09.216Z,22.19
2018-10-19T01:02:37.623Z,22.19
2018-10-19T01:05:06.243Z,22.17
2018-10-19T01:07:34.657Z,22.18
2018-10-19T01:10:03.089Z,22.17
2018-10-19T01:12:31.478Z,22.16
2018-10-19T01:14:59.994Z,22.15
2018-10-19T01:17:28.506Z,22.15
2018-10-19T01:19:56.862Z,22.13
2018-10-19T01:22:25.171Z,22.12
2018-10-19T01:24:53.540Z,22.13
2018-10-19T01:27:21.892Z,22.13
2018-10-19T01:29:50.260Z,22.11
2018-10-19T01:32:18.579Z,22.10
2018-10-19T01:34:46.891Z,22.10
2018-10-19T01:37:15.227Z,22.10
2018-10-19T01:39:43.678Z,22.09
2018-10-19T01:42:11.999Z,22.09
2018-10-19T01:44:40.316Z,22.09
2018-10-19T01:47:08.748Z,22.09
2018-10-19T01:49:37.051Z,22.06
2018-10-19T01:52:06.018Z,22.06
2018-10-19T01:54:34.412Z,22.06
2018-10-19T01:57:02.762Z,22.06
2018-10-19T01:59:31.074Z,22.04
2018-10-19T02:01:59.366Z,22.04
2018-10-19T02:04:27.892Z,22.04
2018-10-19T02:06:56.277Z,22.02
2018-10-19T02:09:24.770Z,22.02
2018-10-19T02:11:54.075Z,22.03
2018-10-19T02:14:22.437Z,22.02
2018-10-19T02:16:50.891Z,22.00
2018-10-19T02:19:19.364Z,22.01
2018-10-19T02:21:47.753Z,22.00
2018-10-19T02:24:16.151Z,21.98
2018-10-19T02:26:44.466Z,21.98
2018-10-19T02:29:12.900Z,21.97
2018-10-19T02:31:41.410Z,21.97
2018-10-19T02:34:09.817Z,21.97
2018-10-19T02:36:38.167Z,21.97
2018-10-19T02:39:07.853Z,21.96
2018-10-19T02:41:36.291Z,21.95
2018-10-19T02:44:04.766Z,21.95
2018-10-19T02:46:33.154Z,21.94
2018-10-19T02:49:01.507Z,21.95
2018-10-19T02:51:29.888Z,21.94
2018-10-19T02:53:58.210Z,21.93
2018-10-19T02:56:26.608Z,21.91
2018-10-19T02:58:54.945Z,21.92
2018-10-19T03:01:23.309Z,21.92
2018-10-19T03:03:51.690Z,21.91
2018-10-19T03:06:20.041Z,21.91
2018-10-19T03:08:48.360Z,21.90
2018-10-19T03:11:16.785Z,21.89
2018-10-19T03:13:45.175Z,21.89
2018-10-19T03:16:13.668Z,21.89
2018-10-19T03:18:42.118Z,21.88
2018-10-19T03:21:10.884Z,21.87
2018-10-19T03:23:39.435Z,21.86
2018-10-19T03:26:08.771Z,21.85
2018-10-19T03:28:37.176Z,21.87
2018-10-19T03:31:06.139Z,21.84
2018-10-19T03:33:34.686Z,21.84
2018-10-19T03:36:03.027Z,21.83
2018-10-19T03:38:31.313Z,21.83
2018-10-19T03:41:00.527Z,21.83
2018-10-19T03:43:28.852Z,21.82
2018-10-19T03:45:57.188Z,21.81
2018-10-19T03:48:25.611Z,21.80
2018-10-19T03:50:54.017Z,21.80
2018-10-19T03:53:22.440Z,21.79
2018-10-19T03:55:50.762Z,21.79
2018-10-19T03:58:19.141Z,21.77
2018-10-19T04:00:47.473Z,21.78
2018-10-19T04:03:15.893Z,21.77
2018-10-19T04:05:44.267Z,21.76
2018-10-19T04:08:12.728Z,21.75
2018-10-19T04:10:41.022Z,21.75
2018-10-19T04:13:09.342Z,21.75
2018-10-19T04:15:37.670Z,21.74
2018-10-19T04:18:06.024Z,21.74
2018-10-19T04:20:34.502Z,21.73
2018-10-19T04:23:08.321Z,21.74
2018-10-19T04:25:37.628Z,21.74
2018-10-19T04:28:06.203Z,21.74
2018-10-19T04:30:35.844Z,21.74
2018-10-19T04:33:04.363Z,21.73
2018-10-19T04:35:32.784Z,21.73
2018-10-19T04:38:01.596Z,21.73
2018-10-19T04:40:29.889Z,21.73
2018-10-19T04:42:58.211Z,21.74
2018-10-19T04:45:26.587Z,21.71
2018-10-19T04:47:54.924Z,21.73
2018-10-19T04:50:23.234Z,21.72
2018-10-19T04:52:51.578Z,21.72
2018-10-19T04:55:21.231Z,21.72
2018-10-19T04:57:49.583Z,21.72
2018-10-19T05:00:19.945Z,21.71
2018-10-19T05:02:49.095Z,21.71
2018-10-19T05:05:17.550Z,21.71
2018-10-19T05:07:45.805Z,21.71
2018-10-19T05:10:14.175Z,21.71
2018-10-19T05:12:42.624Z,21.71
2018-10-19T05:15:11.823Z,21.70
2018-10-19T05:17:40.223Z,21.71
2018-10-19T05:20:10.410Z,21.70
2018-10-19T05:22:38.922Z,21.70
2018-10-19T05:25:09.243Z,21.68
2018-10-19T05:27:37.760Z,21.68
2018-10-19T05:30:08.880Z,21.67
2018-10-19T05:32:37.227Z,21.67
2018-10-19T05:35:06.866Z,21.66
2018-10-19T05:37:35.382Z,21.66
2018-10-19T05:40:03.725Z,21.66
2018-10-19T05:42:32.039Z,21.64
2018-10-19T05:45:00.343Z,21.64
2018-10-19T05:47:28.686Z,21.64
2018-10-19T05:49:57.052Z,21.64
2018-10-19T05:52:25.620Z,21.63
2018-10-19T05:54:53.971Z,21.63
2018-10-19T05:57:22.339Z,21.62
2018-10-19T05:59:50.756Z,21.61
2018-10-19T06:02:19.180Z,21.61
2018-10-19T06:04:47.461Z,21.61
2018-10-19T06:07:15.859Z,21.60
2018-10-19T06:09:44.175Z,21.60
2018-10-19T06:12:12.478Z,21.59
2018-10-19T06:14:40.880Z,21.60
2018-10-19T06:17:09.270Z,21.59
2018-10-19T06:19:37.504Z,21.60
2018-10-19T06:22:05.842Z,21.60
2018-10-19T06:24:34.183Z,21.59
2018-10-19T06:27:02.478Z,21.59
2018-10-19T06:29:30.844Z,21.58
2018-10-19T06:31:59.149Z,21.58
2018-10-19T06:34:27.508Z,21.58
2018-10-19T06:36:55.843Z,21.58
2018-10-19T06:57:59.408Z,21.42
2018-10-19T07:00:27.837Z,21.47
2018-10-19T07:02:56.197Z,21.53
2018-10-19T07:05:24.636Z,21.59
2018-10-19T07:07:53.068Z,21.66
2018-10-19T07:10:21.523Z,21.74
2018-10-19T07:12:50.082Z,21.79
2018-10-19T07:15:18.668Z,21.84
2018-10-19T07:17:47.109Z,21.89
2018-10-19T07:20:15.579Z,21.93
2018-10-19T07:22:43.937Z,21.95
2018-10-19T07:25:12.308Z,21.98
2018-10-19T07:27:40.641Z,22.03
2018-10-19T07:30:09.245Z,22.04
2018-10-19T07:32:37.672Z,22.09
2018-10-19T07:35:07.021Z,22.12
2018-10-19T07:37:35.449Z,22.14
2018-10-19T07:40:04.560Z,22.14
2018-10-19T07:42:32.963Z,22.17
2018-10-19T07:45:01.338Z,22.17
2018-10-19T07:47:29.824Z,22.17
2018-10-19T07:49:58.231Z,22.22
2018-10-19T07:52:26.552Z,22.25
2018-10-19T07:54:54.900Z,22.25
2018-10-19T07:57:23.255Z,22.26
2018-10-19T07:59:51.701Z,22.27
2018-10-19T08:02:20.057Z,22.29
2018-10-19T08:04:48.486Z,22.30
2018-10-19T08:07:16.920Z,22.29
2018-10-19T08:09:45.420Z,22.30
2018-10-19T08:12:13.799Z,22.33
2018-10-19T08:14:42.317Z,22.34
2018-10-19T08:17:10.811Z,22.34
2018-10-19T08:19:39.077Z,22.34
2018-10-19T08:22:07.718Z,22.36
2018-10-19T08:24:36.100Z,22.36
2018-10-19T08:27:04.963Z,22.37
2018-10-19T08:29:33.284Z,22.38
2018-10-19T08:32:01.797Z,22.40
2018-10-19T08:34:30.128Z,22.41
2018-10-19T08:36:58.588Z,22.42
2018-10-19T08:39:26.968Z,22.44
2018-10-19T08:41:55.384Z,22.45
2018-10-19T08:44:23.790Z,22.46
2018-10-19T08:46:52.104Z,22.47
2018-10-19T08:49:20.460Z,22.48
2018-10-19T08:51:48.797Z,22.49
2018-10-19T08:54:17.152Z,22.50
2018-10-19T08:56:45.600Z,22.51
2018-10-19T08:59:14.016Z,22.50
2018-10-19T09:01:42.412Z,22.51
2018-10-19T09:04:10.927Z,22.53
2018-10-19T09:06:40.296Z,22.55
2018-10-19T09:09:10.425Z,22.56
2018-10-19T09:11:39.155Z,22.56
2018-10-19T09:14:18.887Z,22.57
2018-10-19T09:16:47.888Z,22.58
2018-10-19T09:19:16.270Z,22.57
2018-10-19T09:21:45.057Z,22.57
2018-10-19T09:24:13.521Z,22.57
2018-10-19T09:26:43.097Z,22.58
2018-10-19T09:29:11.751Z,22.59
2018-10-19T09:31:40.110Z,22.59
2018-10-19T09:34:08.545Z,22.58
2018-10-19T09:36:36.988Z,22.58
2018-10-19T09:39:08.778Z,22.59
2018-10-19T09:41:37.052Z,22.58
2018-10-19T09:44:05.571Z,22.59
2018-10-19T09:46:34.033Z,22.59
2018-10-19T09:49:02.500Z,22.60
2018-10-19T09:51:30.845Z,22.61
2018-10-19T09:53:59.259Z,22.63
2018-10-19T09:56:27.629Z,22.65
2018-10-19T09:58:56.007Z,22.67
2018-10-19T10:01:29.525Z,22.72
2018-10-19T10:03:58.041Z,22.77
2018-10-19T10:06:26.405Z,22.79
2018-10-19T10:08:54.953Z,22.81
2018-10-19T10:11:23.253Z,22.83
2018-10-19T10:13:51.800Z,22.84
2018-10-19T10:16:20.297Z,22.86
2018-10-19T10:18:48.683Z,22.88
2018-10-19T10:21:17.389Z,22.90
2018-10-19T10:23:46.413Z,22.92
2018-10-19T10:26:15.887Z,22.97
2018-10-19T10:28:44.367Z,22.98
2018-10-19T10:31:12.747Z,23.03
2018-10-19T10:33:41.139Z,23.04
2018-10-19T10:36:09.517Z,23.05
2018-10-19T10:38:37.899Z,23.04
2018-10-19T10:41:06.377Z,23.05
2018-10-19T10:43:35.064Z,23.05
2018-10-19T10:46:03.631Z,23.07
2018-10-19T10:48:32.228Z,23.07
2018-10-19T10:51:01.060Z,23.08
2018-10-19T10:53:29.579Z,23.10
2018-10-19T10:55:57.916Z,23.10
2018-10-19T10:58:26.350Z,23.11
2018-10-19T11:00:54.776Z,23.12
2018-10-19T11:03:23.156Z,23.16
2018-10-19T11:05:51.527Z,23.22
2018-10-19T11:08:19.921Z,23.28
2018-10-19T11:10:48.368Z,23.27
2018-10-19T11:13:16.840Z,23.28
2018-10-19T11:15:45.257Z,23.27
2018-10-19T11:18:13.605Z,23.28
2018-10-19T11:20:41.953Z,23.27
2018-10-19T11:23:10.970Z,23.29
2018-10-19T11:25:39.424Z,23.28
2018-10-19T11:28:07.853Z,23.29
2018-10-19T11:30:36.326Z,23.31
2018-10-19T11:33:04.764Z,23.32
2018-10-19T11:35:33.466Z,23.33
2018-10-19T11:38:01.961Z,23.34
2018-10-19T11:40:32.717Z,23.35
2018-10-19T11:43:01.212Z,23.36
2018-10-19T11:45:30.901Z,23.37
2018-10-19T11:47:59.271Z,23.38
2018-10-19T11:50:27.707Z,23.41
2018-10-19T11:52:56.434Z,23.46
2018-10-19T11:55:24.827Z,23.52
2018-10-19T11:57:53.484Z,23.53
2018-10-19T12:00:21.929Z,23.52
2018-10-19T12:02:50.293Z,23.53
2018-10-19T12:05:18.768Z,23.53
2018-10-19T12:07:47.144Z,23.53
2018-10-19T12:10:15.749Z,23.54
2018-10-19T12:12:44.401Z,23.56
2018-10-19T12:15:14.045Z,23.55
2018-10-19T12:17:43.080Z,23.57
2018-10-19T12:20:14.172Z,23.57
2018-10-19T12:22:42.561Z,23.56
2018-10-19T12:25:11.937Z,23.57
2018-10-19T12:27:40.657Z,23.58
2018-10-19T12:30:09.817Z,23.59
2018-10-19T12:32:38.337Z,23.60
2018-10-19T12:35:08.173Z,23.60
2018-10-19T12:37:36.590Z,23.61
2018-10-19T12:40:05.041Z,23.61
2018-10-19T12:42:33.389Z,23.62
2018-10-19T12:45:01.862Z,23.63
2018-10-19T12:47:39.774Z,23.65
2018-10-19T12:50:08.588Z,23.64
2018-10-19T12:52:37.117Z,23.64
2018-10-19T12:55:07.029Z,23.65
2018-10-19T12:57:35.554Z,23.66
2018-10-19T13:00:04.376Z,23.65
2018-10-19T13:02:32.781Z,23.67
2018-10-19T13:05:01.129Z,23.67
2018-10-19T13:07:29.652Z,23.67
2018-10-19T13:09:58.036Z,23.67
2018-10-19T13:12:26.584Z,23.66
2018-10-19T13:14:54.961Z,23.67
2018-10-19T13:17:23.318Z,23.68
2018-10-19T13:19:51.698Z,23.68
2018-10-19T13:22:20.080Z,23.69
2018-10-19T13:24:48.448Z,23.68
2018-10-19T13:27:16.877Z,23.68
2018-10-19T13:29:45.237Z,23.68
2018-10-19T13:32:13.640Z,23.69
2018-10-19T13:34:42.042Z,23.68
2018-10-19T13:37:10.456Z,23.68
2018-10-19T13:39:38.804Z,23.68
2018-10-19T13:42:07.155Z,23.67
2018-10-19T13:44:35.516Z,23.69
2018-10-19T13:47:04.017Z,23.69
2018-10-19T13:49:32.373Z,23.68
2018-10-19T13:52:00.814Z,23.68
2018-10-19T13:54:29.144Z,23.67
2018-10-19T13:56:58.560Z,23.66
2018-10-19T13:59:26.912Z,23.67
2018-10-19T14:01:55.272Z,23.66
2018-10-19T14:04:23.636Z,23.65
2018-10-19T14:06:51.981Z,23.65
2018-10-19T14:09:20.328Z,23.64
2018-10-19T14:11:48.736Z,23.63
2018-10-19T14:14:17.116Z,23.63
2018-10-19T14:16:45.537Z,23.61
2018-10-19T14:19:13.959Z,23.61
2018-10-19T14:21:42.280Z,23.60
2018-10-19T14:24:10.685Z,23.59
2018-10-19T14:26:39.097Z,23.57
2018-10-19T14:29:07.431Z,23.58
2018-10-19T14:31:35.784Z,23.57
2018-10-19T14:34:04.187Z,23.56
2018-10-19T14:36:32.558Z,23.56
2018-10-19T14:39:00.999Z,23.55
2018-10-19T14:41:29.348Z,23.54
2018-10-19T14:43:57.703Z,23.54
2018-10-19T14:46:26.029Z,23.53
2018-10-19T14:48:54.451Z,23.52
2018-10-19T14:51:22.763Z,23.51
2018-10-19T14:53:51.151Z,23.50
2018-10-19T14:56:19.517Z,23.49
2018-10-19T14:58:47.895Z,23.48
2018-10-19T15:01:16.288Z,23.47
2018-10-19T15:03:44.899Z,23.48
2018-10-19T15:06:13.468Z,23.46
2018-10-19T15:08:42.081Z,23.45
2018-10-19T15:11:10.968Z,23.45
2018-10-19T15:13:39.446Z,23.43
2018-10-19T15:16:08.079Z,23.43
2018-10-19T15:18:36.755Z,23.42
2018-10-19T15:21:06.149Z,23.42
2018-10-19T15:23:34.496Z,23.41
2018-10-19T15:26:02.840Z,23.39
2018-10-19T15:28:31.176Z,23.38
2018-10-19T15:30:59.500Z,23.37
2018-10-19T15:33:27.874Z,23.38
2018-10-19T15:35:56.250Z,23.36
2018-10-19T15:38:24.598Z,23.36
2018-10-19T15:40:52.920Z,23.35
2018-10-19T15:43:21.296Z,23.34
2018-10-19T15:45:49.616Z,23.31
2018-10-19T15:48:17.995Z,23.31
2018-10-19T15:50:46.376Z,23.28
2018-10-19T15:53:14.756Z,23.28
2018-10-19T15:55:43.113Z,23.27
2018-10-19T15:58:11.445Z,23.26
2018-10-19T16:00:39.881Z,23.25
2018-10-19T16:03:09.096Z,23.24
2018-10-19T16:05:37.385Z,23.23
2018-10-19T16:08:05.841Z,23.22
2018-10-19T16:10:34.224Z,23.21
2018-10-19T16:13:02.632Z,23.20
2018-10-19T16:15:31.020Z,23.19
2018-10-19T16:17:59.354Z,23.17
2018-10-19T16:20:27.704Z,23.16
2018-10-19T16:22:56.060Z,23.16
2018-10-19T16:25:24.493Z,23.14
2018-10-19T16:27:52.883Z,23.14
2018-10-19T16:30:21.240Z,23.12
2018-10-19T16:32:49.572Z,23.12
2018-10-19T16:35:17.965Z,23.10
2018-10-19T16:37:46.339Z,23.09
2018-10-19T16:40:14.730Z,23.08
2018-10-19T16:42:43.158Z,23.07
2018-10-19T16:45:12.208Z,23.06
2018-10-19T16:47:40.485Z,23.05
2018-10-19T16:50:08.841Z,23.04
2018-10-19T16:52:37.297Z,23.03
2018-10-19T16:55:05.796Z,23.03
2018-10-19T16:57:34.217Z,23.02
2018-10-19T17:00:02.647Z,23.01
2018-10-19T17:02:30.992Z,23.00
2018-10-19T17:04:59.372Z,23.00
2018-10-19T17:07:27.733Z,23.00
2018-10-19T17:09:56.114Z,22.97
2018-10-19T17:12:24.445Z,22.97
2018-10-19T17:14:52.849Z,22.95
2018-10-19T17:17:21.236Z,22.94
2018-10-19T17:19:49.604Z,22.93
2018-10-19T17:22:18.056Z,22.92
2018-10-19T17:24:46.424Z,22.92
2018-10-19T17:27:14.872Z,22.90
2018-10-19T17:29:43.188Z,22.89
2018-10-19T17:32:11.623Z,22.89
2018-10-19T17:34:39.972Z,22.89
2018-10-19T17:37:08.417Z,22.88
2018-10-19T17:39:36.722Z,22.88
2018-10-19T17:42:05.274Z,22.87
2018-10-19T17:44:33.644Z,22.86
2018-10-19T17:47:02.241Z,22.85
2018-10-19T17:49:30.622Z,22.84
2018-10-19T17:51:59.036Z,22.85
2018-10-19T17:54:27.424Z,22.83
2018-10-19T17:56:56.495Z,22.82
2018-10-19T17:59:24.835Z,22.82
2018-10-19T18:01:53.211Z,22.81
2018-10-19T18:04:21.834Z,22.81
2018-10-19T18:06:50.280Z,22.81
2018-10-19T18:09:18.778Z,22.81
2018-10-19T18:11:47.469Z,22.81
2018-10-19T18:14:15.912Z,22.80
2018-10-19T18:16:44.369Z,22.80
2018-10-19T18:19:12.817Z,22.80
2018-10-19T18:21:41.981Z,22.79
2018-10-19T18:24:10.397Z,22.80
2018-10-19T18:26:38.876Z,22.79
2018-10-19T18:29:07.417Z,22.79
2018-10-19T18:31:35.864Z,22.78
2018-10-19T18:34:04.308Z,22.79
2018-10-19T18:36:32.899Z,22.78
2018-10-19T18:39:01.217Z,22.77
2018-10-19T18:41:29.689Z,22.76
2018-10-19T18:43:58.130Z,22.76
2018-10-19T18:46:26.532Z,22.76
2018-10-19T18:48:54.968Z,22.75
2018-10-19T18:51:23.348Z,22.76
2018-10-19T18:53:51.765Z,22.76
2018-10-19T18:56:20.272Z,22.76
2018-10-19T18:58:48.793Z,22.74
2018-10-19T19:01:17.349Z,22.74
2018-10-19T19:03:45.753Z,22.74
2018-10-19T19:06:14.312Z,22.74
2018-10-19T19:08:42.836Z,22.74
2018-10-19T19:11:11.334Z,22.74
2018-10-19T19:13:45.548Z,22.73
2018-10-19T19:16:19.420Z,22.72
2018-10-19T19:18:48.045Z,22.72
2018-10-19T19:21:16.543Z,22.70
2018-10-19T19:23:50.321Z,22.70
2018-10-19T19:26:20.454Z,22.68
2018-10-19T19:28:48.842Z,22.68
2018-10-19T19:31:17.360Z,22.67
2018-10-19T19:33:51.018Z,22.68
2018-10-19T19:36:19.451Z,22.67
2018-10-19T19:38:48.035Z,22.67
2018-10-19T19:41:21.981Z,22.65
2018-10-19T19:43:50.532Z,22.64
2018-10-19T19:46:19.001Z,22.64
2018-10-19T19:48:52.782Z,22.65
2018-10-19T19:51:21.164Z,22.64
2018-10-19T19:53:49.648Z,22.63
2018-10-19T19:56:18.042Z,22.64
2018-10-19T19:58:46.348Z,22.63
2018-10-19T20:01:14.772Z,22.64
2018-10-19T20:03:43.092Z,22.63
2018-10-19T20:06:11.459Z,22.64
2018-10-19T20:08:39.820Z,22.63
2018-10-19T20:11:08.556Z,22.62
2018-10-19T20:13:36.856Z,22.63
2018-10-19T20:16:05.318Z,22.62
2018-10-19T20:18:33.692Z,22.61
2018-10-19T20:21:02.164Z,22.60
2018-10-19T20:23:30.638Z,22.61
2018-10-19T20:25:58.990Z,22.61
2018-10-19T20:28:27.310Z,22.60
2018-10-19T20:30:56.409Z,22.58
2018-10-19T20:33:24.852Z,22.59
2018-10-19T20:35:53.158Z,22.60
2018-10-19T20:38:21.540Z,22.59
2018-10-19T20:40:49.908Z,22.58
2018-10-19T20:43:18.260Z,22.59
2018-10-19T20:45:46.917Z,22.58
2018-10-19T20:48:15.377Z,22.57
2018-10-19T20:50:43.870Z,22.56
2018-10-19T20:53:12.416Z,22.58
2018-10-19T20:55:40.729Z,22.56
2018-10-19T20:58:09.244Z,22.55
2018-10-19T21:00:37.573Z,22.55
2018-10-19T21:03:05.968Z,22.55
2018-10-19T21:05:34.368Z,22.53
2018-10-19T21:08:02.818Z,22.54
2018-10-19T21:10:31.132Z,22.52
2018-10-19T21:12:59.713Z,22.52
2018-10-19T21:15:28.312Z,22.52
2018-10-19T21:17:56.796Z,22.50
2018-10-19T21:20:25.164Z,22.50
2018-10-19T21:22:54.361Z,22.50
2018-10-19T21:25:22.713Z,22.48
2018-10-19T21:27:51.084Z,22.48
2018-10-19T21:30:19.446Z,22.46
2018-10-19T21:32:47.854Z,22.45
2018-10-19T21:35:16.293Z,22.44
2018-10-19T21:37:44.633Z,22.44
2018-10-19T21:40:13.061Z,22.43
2018-10-19T21:42:41.403Z,22.44
2018-10-19T21:45:09.796Z,22.43
2018-10-19T21:47:38.217Z,22.42
2018-10-19T21:50:07.473Z,22.41
2018-10-19T21:52:35.784Z,22.41
2018-10-19T21:55:04.206Z,22.41
2018-10-19T21:57:32.633Z,22.40
2018-10-19T22:00:01.065Z,22.39
2018-10-19T22:02:29.495Z,22.38
2018-10-19T22:04:57.915Z,22.38
2018-10-19T22:07:26.302Z,22.38
2018-10-19T22:09:54.656Z,22.38
2018-10-19T22:12:23.052Z,22.36
2018-10-19T22:14:51.425Z,22.36
2018-10-19T22:17:19.817Z,22.34
2018-10-19T22:19:48.177Z,22.33
2018-10-19T22:22:16.564Z,22.33
2018-10-19T22:24:45.104Z,22.32
2018-10-19T22:27:13.435Z,22.31
2018-10-19T22:29:41.784Z,22.31
2018-10-19T22:32:10.164Z,22.31
2018-10-19T22:34:38.504Z,22.30
2018-10-19T22:37:06.870Z,22.28
2018-10-19T22:39:35.194Z,22.27
2018-10-19T22:42:03.617Z,22.27
2018-10-19T22:44:32.031Z,22.26
2018-10-19T22:47:00.380Z,22.26
2018-10-19T22:49:28.725Z,22.26
2018-10-19T22:51:57.067Z,22.26
2018-10-19T22:54:25.404Z,22.25
2018-10-19T22:56:53.856Z,22.24
2018-10-19T22:59:22.284Z,22.23
2018-10-19T23:01:50.615Z,22.23
2018-10-19T23:04:19.028Z,22.23
2018-10-19T23:06:47.496Z,22.21
2018-10-19T23:09:15.925Z,22.20
2018-10-19T23:11:44.296Z,22.19
2018-10-19T23:14:12.692Z,22.18
2018-10-19T23:16:41.564Z,22.18
2018-10-19T23:19:09.960Z,22.17
2018-10-19T23:21:38.362Z,22.16
2018-10-19T23:24:07.340Z,22.16
2018-10-19T23:26:35.731Z,22.15
2018-10-19T23:29:04.745Z,22.14
2018-10-19T23:31:33.175Z,22.14
2018-10-19T23:34:01.504Z,22.14
2018-10-19T23:36:29.827Z,22.12
2018-10-19T23:38:58.192Z,22.12
2018-10-19T23:41:26.535Z,22.11
2018-10-19T23:43:55.015Z,22.10
2018-10-19T23:46:23.280Z,22.10
2018-10-19T23:48:51.640Z,22.10
2018-10-19T23:51:19.992Z,22.10
2018-10-19T23:53:48.344Z,22.10
2018-10-19T23:56:16.720Z,22.08
2018-10-19T23:58:45.624Z,22.08
